sensor_id;sensor_type;location;lat;lon;timestamp;P1;durP1;ratioP1;P2;durP2;ratioP2
17714;SDS011;8977;50.902;4.314;2023-03-01T00:01:27;9.27;;;8.23;;
17714;SDS011;8977;50.902;4.314;2023-03-01T00:03:55;11.13;;;8.73;;
17714;SDS011;8977;50.902;4.314;2023-03-01T00:06:24;11.23;;;8.03;;
17714;SDS011;8977;50.902;4.314;2023-03-01T00:08:52;9.23;;;8.23;;
17714;SDS011;8977;50.902;4.314;2023-03-01T00:11:24;10.67;;;8.57;;
17714;SDS011;8977;50.902;4.314;2023-03-01T00:13:53;13.40;;;8.53;;
17714;SDS011;8977;50.902;4.314;2023-03-01T00:16:23;10.40;;;8.90;;
17714;SDS011;8977;50.902;4.314;2023-03-01T00:18:53;9.57;;;8.43;;
17714;SDS011;8977;50.902;4.314;2023-03-01T00:21:20;11.57;;;9.13;;
17714;SDS011;8977;50.902;4.314;2023-03-01T00:23:48;9.37;;;8.33;;
17714;SDS011;8977;50.902;4.314;2023-03-01T00:26:16;9.73;;;8.33;;
17714;SDS011;8977;50.902;4.314;2023-03-01T00:28:45;9.47;;;8.53;;
17714;SDS011;8977;50.902;4.314;2023-03-01T00:31:13;10.80;;;7.73;;
17714;SDS011;8977;50.902;4.314;2023-03-01T00:33:41;9.43;;;8.20;;
17714;SDS011;8977;50.902;4.314;2023-03-01T00:36:09;10.27;;;9.10;;
17714;SDS011;8977;50.902;4.314;2023-03-01T00:38:39;10.57;;;9.00;;
17714;SDS011;8977;50.902;4.314;2023-03-01T00:41:07;9.27;;;8.33;;
17714;SDS011;8977;50.902;4.314;2023-03-01T00:43:35;10.07;;;8.93;;
17714;SDS011;8977;50.902;4.314;2023-03-01T00:46:07;9.70;;;7.67;;
17714;SDS011;8977;50.902;4.314;2023-03-01T00:48:35;9.87;;;8.03;;
17714;SDS011;8977;50.902;4.314;2023-03-01T00:51:06;11.13;;;8.37;;
17714;SDS011;8977;50.902;4.314;2023-03-01T00:53:35;8.57;;;7.60;;
17714;SDS011;8977;50.902;4.314;2023-03-01T00:56:02;10.07;;;7.70;;
17714;SDS011;8977;50.902;4.314;2023-03-01T00:58:30;10.67;;;8.43;;
17714;SDS011;8977;50.902;4.314;2023-03-01T01:00:58;10.63;;;8.13;;
17714;SDS011;8977;50.902;4.314;2023-03-01T01:03:26;7.73;;;6.93;;
17714;SDS011;8977;50.902;4.314;2023-03-01T01:05:53;9.83;;;7.87;;
17714;SDS011;8977;50.902;4.314;2023-03-01T01:08:20;10.23;;;8.03;;
17714;SDS011;8977;50.902;4.314;2023-03-01T01:10:47;8.87;;;7.97;;
17714;SDS011;8977;50.902;4.314;2023-03-01T01:13:14;9.03;;;7.87;;
17714;SDS011;8977;50.902;4.314;2023-03-01T01:15:41;9.40;;;8.13;;
17714;SDS011;8977;50.902;4.314;2023-03-01T01:18:08;10.17;;;8.63;;
17714;SDS011;8977;50.902;4.314;2023-03-01T01:20:37;9.87;;;7.97;;
17714;SDS011;8977;50.902;4.314;2023-03-01T01:23:05;9.37;;;8.30;;
17714;SDS011;8977;50.902;4.314;2023-03-01T01:25:34;8.97;;;7.77;;
17714;SDS011;8977;50.902;4.314;2023-03-01T01:28:04;9.30;;;7.80;;
17714;SDS011;8977;50.902;4.314;2023-03-01T01:30:31;9.50;;;7.23;;
17714;SDS011;8977;50.902;4.314;2023-03-01T01:32:58;10.37;;;7.83;;
17714;SDS011;8977;50.902;4.314;2023-03-01T01:35:24;9.20;;;7.30;;
17714;SDS011;8977;50.902;4.314;2023-03-01T01:37:53;9.23;;;7.70;;
17714;SDS011;8977;50.902;4.314;2023-03-01T01:40:22;8.30;;;7.50;;
17714;SDS011;8977;50.902;4.314;2023-03-01T01:42:49;9.20;;;7.67;;
17714;SDS011;8977;50.902;4.314;2023-03-01T01:45:24;7.83;;;6.97;;
17714;SDS011;8977;50.902;4.314;2023-03-01T01:47:55;8.50;;;7.57;;
17714;SDS011;8977;50.902;4.314;2023-03-01T01:50:25;9.30;;;7.73;;
17714;SDS011;8977;50.902;4.314;2023-03-01T01:53:04;10.13;;;8.43;;
17714;SDS011;8977;50.902;4.314;2023-03-01T01:55:35;9.93;;;7.77;;
17714;SDS011;8977;50.902;4.314;2023-03-01T01:58:05;8.63;;;7.40;;
17714;SDS011;8977;50.902;4.314;2023-03-01T02:00:35;8.27;;;7.33;;
17714;SDS011;8977;50.902;4.314;2023-03-01T02:03:07;8.03;;;7.23;;
17714;SDS011;8977;50.902;4.314;2023-03-01T02:05:37;8.70;;;7.50;;
17714;SDS011;8977;50.902;4.314;2023-03-01T02:08:11;10.30;;;8.00;;
17714;SDS011;8977;50.902;4.314;2023-03-01T02:10:40;7.87;;;7.07;;
17714;SDS011;8977;50.902;4.314;2023-03-01T02:13:08;9.23;;;7.73;;
17714;SDS011;8977;50.902;4.314;2023-03-01T02:15:37;8.17;;;7.30;;
17714;SDS011;8977;50.902;4.314;2023-03-01T02:18:05;9.10;;;7.40;;
17714;SDS011;8977;50.902;4.314;2023-03-01T02:20:34;10.60;;;8.17;;
17714;SDS011;8977;50.902;4.314;2023-03-01T02:23:12;8.50;;;7.60;;
17714;SDS011;8977;50.902;4.314;2023-03-01T02:25:42;8.60;;;7.43;;
17714;SDS011;8977;50.902;4.314;2023-03-01T02:28:23;10.37;;;7.73;;
17714;SDS011;8977;50.902;4.314;2023-03-01T02:30:52;9.37;;;7.20;;
17714;SDS011;8977;50.902;4.314;2023-03-01T02:33:37;8.37;;;7.13;;
17714;SDS011;8977;50.902;4.314;2023-03-01T02:36:06;9.07;;;7.87;;
17714;SDS011;8977;50.902;4.314;2023-03-01T02:38:38;8.60;;;7.70;;
17714;SDS011;8977;50.902;4.314;2023-03-01T02:41:06;10.30;;;7.90;;
17714;SDS011;8977;50.902;4.314;2023-03-01T02:43:36;9.63;;;7.57;;
17714;SDS011;8977;50.902;4.314;2023-03-01T02:46:03;9.17;;;8.17;;
17714;SDS011;8977;50.902;4.314;2023-03-01T02:48:39;8.77;;;7.77;;
17714;SDS011;8977;50.902;4.314;2023-03-01T02:51:09;12.70;;;8.23;;
17714;SDS011;8977;50.902;4.314;2023-03-01T02:53:46;10.20;;;8.33;;
17714;SDS011;8977;50.902;4.314;2023-03-01T02:56:21;9.87;;;8.03;;
17714;SDS011;8977;50.902;4.314;2023-03-01T02:58:49;8.40;;;7.60;;
17714;SDS011;8977;50.902;4.314;2023-03-01T03:01:16;8.07;;;7.27;;
17714;SDS011;8977;50.902;4.314;2023-03-01T03:03:44;9.43;;;8.37;;
17714;SDS011;8977;50.902;4.314;2023-03-01T03:06:10;11.43;;;8.47;;
17714;SDS011;8977;50.902;4.314;2023-03-01T03:08:38;10.50;;;8.03;;
17714;SDS011;8977;50.902;4.314;2023-03-01T03:11:05;8.77;;;7.97;;
17714;SDS011;8977;50.902;4.314;2023-03-01T03:13:32;8.10;;;7.30;;
17714;SDS011;8977;50.902;4.314;2023-03-01T03:16:01;9.93;;;8.00;;
17714;SDS011;8977;50.902;4.314;2023-03-01T03:18:28;10.43;;;8.60;;
17714;SDS011;8977;50.902;4.314;2023-03-01T03:20:55;8.80;;;7.90;;
17714;SDS011;8977;50.902;4.314;2023-03-01T03:23:22;8.23;;;7.43;;
17714;SDS011;8977;50.902;4.314;2023-03-01T03:25:50;10.83;;;8.33;;
17714;SDS011;8977;50.902;4.314;2023-03-01T03:28:17;10.87;;;7.97;;
17714;SDS011;8977;50.902;4.314;2023-03-01T03:30:44;9.07;;;8.17;;
17714;SDS011;8977;50.902;4.314;2023-03-01T03:33:13;9.40;;;7.73;;
17714;SDS011;8977;50.902;4.314;2023-03-01T03:35:43;9.23;;;8.33;;
17714;SDS011;8977;50.902;4.314;2023-03-01T03:38:13;9.07;;;8.27;;
17714;SDS011;8977;50.902;4.314;2023-03-01T03:40:42;8.23;;;7.30;;
17714;SDS011;8977;50.902;4.314;2023-03-01T03:43:11;9.63;;;8.37;;
17714;SDS011;8977;50.902;4.314;2023-03-01T03:45:43;12.33;;;8.37;;
17714;SDS011;8977;50.902;4.314;2023-03-01T03:48:10;11.83;;;8.27;;
17714;SDS011;8977;50.902;4.314;2023-03-01T03:50:39;9.77;;;8.10;;
17714;SDS011;8977;50.902;4.314;2023-03-01T03:53:08;9.77;;;8.37;;
17714;SDS011;8977;50.902;4.314;2023-03-01T03:55:35;8.90;;;8.00;;
17714;SDS011;8977;50.902;4.314;2023-03-01T03:58:04;9.37;;;8.33;;
17714;SDS011;8977;50.902;4.314;2023-03-01T04:00:33;9.13;;;8.13;;
17714;SDS011;8977;50.902;4.314;2023-03-01T04:03:00;9.90;;;8.57;;
17714;SDS011;8977;50.902;4.314;2023-03-01T04:05:29;11.03;;;8.63;;
17714;SDS011;8977;50.902;4.314;2023-03-01T04:07:57;10.10;;;8.37;;
17714;SDS011;8977;50.902;4.314;2023-03-01T04:10:33;8.93;;;8.00;;
17714;SDS011;8977;50.902;4.314;2023-03-01T04:13:02;10.47;;;8.53;;
17714;SDS011;8977;50.902;4.314;2023-03-01T04:15:29;9.43;;;8.53;;
17714;SDS011;8977;50.902;4.314;2023-03-01T04:17:58;9.40;;;7.27;;
17714;SDS011;8977;50.902;4.314;2023-03-01T04:20:27;8.70;;;7.80;;
17714;SDS011;8977;50.902;4.314;2023-03-01T04:23:00;11.00;;;7.77;;
17714;SDS011;8977;50.902;4.314;2023-03-01T04:25:35;8.30;;;7.50;;
17714;SDS011;8977;50.902;4.314;2023-03-01T04:28:03;9.50;;;8.10;;
17714;SDS011;8977;50.902;4.314;2023-03-01T04:30:30;10.67;;;8.53;;
17714;SDS011;8977;50.902;4.314;2023-03-01T04:33:01;10.03;;;8.37;;
17714;SDS011;8977;50.902;4.314;2023-03-01T04:35:29;9.40;;;8.50;;
17714;SDS011;8977;50.902;4.314;2023-03-01T04:37:56;11.20;;;8.33;;
17714;SDS011;8977;50.902;4.314;2023-03-01T04:40:24;9.00;;;8.10;;
17714;SDS011;8977;50.902;4.314;2023-03-01T04:42:51;9.27;;;8.03;;
17714;SDS011;8977;50.902;4.314;2023-03-01T04:45:19;8.50;;;7.57;;
17714;SDS011;8977;50.902;4.314;2023-03-01T04:47:46;8.93;;;7.93;;
17714;SDS011;8977;50.902;4.314;2023-03-01T04:50:13;9.47;;;8.57;;
17714;SDS011;8977;50.902;4.314;2023-03-01T04:52:45;10.13;;;8.80;;
17714;SDS011;8977;50.902;4.314;2023-03-01T04:55:13;8.97;;;8.00;;
17714;SDS011;8977;50.902;4.314;2023-03-01T04:57:43;9.70;;;8.10;;
17714;SDS011;8977;50.902;4.314;2023-03-01T05:00:11;8.83;;;7.97;;
17714;SDS011;8977;50.902;4.314;2023-03-01T05:02:50;8.57;;;7.60;;
17714;SDS011;8977;50.902;4.314;2023-03-01T05:05:22;9.20;;;8.30;;
17714;SDS011;8977;50.902;4.314;2023-03-01T05:07:52;9.43;;;8.40;;
17714;SDS011;8977;50.902;4.314;2023-03-01T05:10:20;9.60;;;7.73;;
17714;SDS011;8977;50.902;4.314;2023-03-01T05:12:49;9.90;;;7.93;;
17714;SDS011;8977;50.902;4.314;2023-03-01T05:15:17;9.40;;;7.87;;
17714;SDS011;8977;50.902;4.314;2023-03-01T05:17:44;9.20;;;8.07;;
17714;SDS011;8977;50.902;4.314;2023-03-01T05:20:14;13.00;;;7.80;;
17714;SDS011;8977;50.902;4.314;2023-03-01T05:22:42;8.33;;;7.43;;
17714;SDS011;8977;50.902;4.314;2023-03-01T05:25:09;9.43;;;8.17;;
17714;SDS011;8977;50.902;4.314;2023-03-01T05:27:39;9.23;;;8.00;;
17714;SDS011;8977;50.902;4.314;2023-03-01T05:30:08;8.80;;;7.90;;
17714;SDS011;8977;50.902;4.314;2023-03-01T05:32:42;10.17;;;8.50;;
17714;SDS011;8977;50.902;4.314;2023-03-01T05:35:11;8.50;;;7.63;;
17714;SDS011;8977;50.902;4.314;2023-03-01T05:37:43;10.27;;;8.03;;
17714;SDS011;8977;50.902;4.314;2023-03-01T05:40:12;9.47;;;8.47;;
17714;SDS011;8977;50.902;4.314;2023-03-01T05:42:45;10.57;;;8.43;;
17714;SDS011;8977;50.902;4.314;2023-03-01T05:45:14;12.90;;;7.93;;
17714;SDS011;8977;50.902;4.314;2023-03-01T05:47:43;8.47;;;7.20;;
17714;SDS011;8977;50.902;4.314;2023-03-01T05:50:12;8.60;;;7.53;;
17714;SDS011;8977;50.902;4.314;2023-03-01T05:52:44;9.53;;;8.20;;
17714;SDS011;8977;50.902;4.314;2023-03-01T05:55:11;9.07;;;7.47;;
17714;SDS011;8977;50.902;4.314;2023-03-01T05:57:38;10.23;;;7.30;;
17714;SDS011;8977;50.902;4.314;2023-03-01T06:00:06;8.67;;;7.77;;
17714;SDS011;8977;50.902;4.314;2023-03-01T06:02:39;8.50;;;7.60;;
17714;SDS011;8977;50.902;4.314;2023-03-01T06:05:07;13.63;;;7.67;;
17714;SDS011;8977;50.902;4.314;2023-03-01T06:07:35;11.37;;;8.77;;
17714;SDS011;8977;50.902;4.314;2023-03-01T06:10:03;8.90;;;7.57;;
17714;SDS011;8977;50.902;4.314;2023-03-01T06:12:30;9.10;;;6.83;;
17714;SDS011;8977;50.902;4.314;2023-03-01T06:14:58;10.03;;;8.83;;
17714;SDS011;8977;50.902;4.314;2023-03-01T06:17:24;10.57;;;8.33;;
17714;SDS011;8977;50.902;4.314;2023-03-01T06:19:53;8.20;;;7.27;;
17714;SDS011;8977;50.902;4.314;2023-03-01T06:22:20;10.67;;;7.63;;
17714;SDS011;8977;50.902;4.314;2023-03-01T06:24:47;9.77;;;7.67;;
17714;SDS011;8977;50.902;4.314;2023-03-01T06:27:14;8.70;;;7.63;;
17714;SDS011;8977;50.902;4.314;2023-03-01T06:29:41;11.03;;;7.93;;
17714;SDS011;8977;50.902;4.314;2023-03-01T06:32:08;8.40;;;7.43;;
17714;SDS011;8977;50.902;4.314;2023-03-01T06:34:35;10.67;;;8.23;;
17714;SDS011;8977;50.902;4.314;2023-03-01T06:37:03;9.20;;;7.57;;
17714;SDS011;8977;50.902;4.314;2023-03-01T06:39:30;10.03;;;7.90;;
17714;SDS011;8977;50.902;4.314;2023-03-01T06:41:57;9.83;;;8.10;;
17714;SDS011;8977;50.902;4.314;2023-03-01T06:44:24;9.43;;;8.03;;
17714;SDS011;8977;50.902;4.314;2023-03-01T06:46:51;9.00;;;7.53;;
17714;SDS011;8977;50.902;4.314;2023-03-01T06:49:18;9.83;;;7.73;;
17714;SDS011;8977;50.902;4.314;2023-03-01T06:51:46;11.13;;;7.37;;
17714;SDS011;8977;50.902;4.314;2023-03-01T06:54:14;8.87;;;7.70;;
17714;SDS011;8977;50.902;4.314;2023-03-01T06:56:42;9.90;;;8.07;;
17714;SDS011;8977;50.902;4.314;2023-03-01T06:59:50;8.40;;;7.60;;
17714;SDS011;8977;50.902;4.314;2023-03-01T07:02:00;9.13;;;7.88;;
17714;SDS011;8977;50.902;4.314;2023-03-01T07:04:27;10.30;;;7.93;;
17714;SDS011;8977;50.902;4.314;2023-03-01T07:06:55;12.00;;;7.80;;
17714;SDS011;8977;50.902;4.314;2023-03-01T07:09:23;9.10;;;7.50;;
17714;SDS011;8977;50.902;4.314;2023-03-01T07:11:50;8.60;;;7.53;;
17714;SDS011;8977;50.902;4.314;2023-03-01T07:14:20;9.70;;;7.60;;
17714;SDS011;8977;50.902;4.314;2023-03-01T07:16:49;8.80;;;7.60;;
17714;SDS011;8977;50.902;4.314;2023-03-01T07:19:16;8.57;;;7.20;;
17714;SDS011;8977;50.902;4.314;2023-03-01T07:21:43;8.97;;;7.73;;
17714;SDS011;8977;50.902;4.314;2023-03-01T07:24:10;9.37;;;7.60;;
17714;SDS011;8977;50.902;4.314;2023-03-01T07:26:38;10.90;;;8.03;;
17714;SDS011;8977;50.902;4.314;2023-03-01T07:29:05;8.80;;;7.77;;
17714;SDS011;8977;50.902;4.314;2023-03-01T07:31:34;8.70;;;7.73;;
17714;SDS011;8977;50.902;4.314;2023-03-01T07:34:01;8.37;;;7.53;;
17714;SDS011;8977;50.902;4.314;2023-03-01T07:36:28;9.00;;;7.93;;
17714;SDS011;8977;50.902;4.314;2023-03-01T07:38:55;9.07;;;7.50;;
17714;SDS011;8977;50.902;4.314;2023-03-01T07:41:22;11.50;;;8.23;;
17714;SDS011;8977;50.902;4.314;2023-03-01T07:43:51;10.43;;;8.63;;
17714;SDS011;8977;50.902;4.314;2023-03-01T07:46:17;13.87;;;9.17;;
17714;SDS011;8977;50.902;4.314;2023-03-01T07:48:44;9.90;;;8.63;;
17714;SDS011;8977;50.902;4.314;2023-03-01T07:51:11;9.77;;;8.43;;
17714;SDS011;8977;50.902;4.314;2023-03-01T07:53:38;9.87;;;8.67;;
17714;SDS011;8977;50.902;4.314;2023-03-01T07:56:05;10.20;;;8.37;;
17714;SDS011;8977;50.902;4.314;2023-03-01T07:58:34;9.80;;;8.77;;
17714;SDS011;8977;50.902;4.314;2023-03-01T08:01:03;9.37;;;8.33;;
17714;SDS011;8977;50.902;4.314;2023-03-01T08:03:30;11.57;;;8.40;;
17714;SDS011;8977;50.902;4.314;2023-03-01T08:05:58;9.93;;;8.27;;
17714;SDS011;8977;50.902;4.314;2023-03-01T08:08:26;13.00;;;9.13;;
17714;SDS011;8977;50.902;4.314;2023-03-01T08:10:55;9.43;;;8.23;;
17714;SDS011;8977;50.902;4.314;2023-03-01T08:13:22;10.63;;;8.43;;
17714;SDS011;8977;50.902;4.314;2023-03-01T08:15:49;12.67;;;9.43;;
17714;SDS011;8977;50.902;4.314;2023-03-01T08:18:18;9.77;;;7.80;;
17714;SDS011;8977;50.902;4.314;2023-03-01T08:20:46;9.37;;;8.07;;
17714;SDS011;8977;50.902;4.314;2023-03-01T08:23:13;12.77;;;8.97;;
17714;SDS011;8977;50.902;4.314;2023-03-01T08:25:40;11.47;;;9.33;;
17714;SDS011;8977;50.902;4.314;2023-03-01T08:28:07;12.97;;;8.27;;
17714;SDS011;8977;50.902;4.314;2023-03-01T08:30:34;10.87;;;8.53;;
17714;SDS011;8977;50.902;4.314;2023-03-01T08:33:01;13.20;;;9.50;;
17714;SDS011;8977;50.902;4.314;2023-03-01T08:35:29;11.83;;;8.90;;
17714;SDS011;8977;50.902;4.314;2023-03-01T08:37:56;13.47;;;9.00;;
17714;SDS011;8977;50.902;4.314;2023-03-01T08:40:22;10.70;;;9.03;;
17714;SDS011;8977;50.902;4.314;2023-03-01T08:42:49;10.20;;;8.93;;
17714;SDS011;8977;50.902;4.314;2023-03-01T08:45:16;11.80;;;9.10;;
17714;SDS011;8977;50.902;4.314;2023-03-01T08:47:44;10.00;;;8.63;;
17714;SDS011;8977;50.902;4.314;2023-03-01T08:50:11;13.33;;;9.50;;
17714;SDS011;8977;50.902;4.314;2023-03-01T08:52:39;13.17;;;9.40;;
17714;SDS011;8977;50.902;4.314;2023-03-01T08:55:06;12.20;;;9.90;;
17714;SDS011;8977;50.902;4.314;2023-03-01T08:57:34;11.40;;;9.33;;
17714;SDS011;8977;50.902;4.314;2023-03-01T09:00:02;10.33;;;8.30;;
17714;SDS011;8977;50.902;4.314;2023-03-01T09:02:33;9.33;;;8.40;;
17714;SDS011;8977;50.902;4.314;2023-03-01T09:05:00;12.47;;;9.77;;
17714;SDS011;8977;50.902;4.314;2023-03-01T09:07:27;11.87;;;9.07;;
17714;SDS011;8977;50.902;4.314;2023-03-01T09:09:55;11.47;;;9.10;;
17714;SDS011;8977;50.902;4.314;2023-03-01T09:12:22;11.27;;;9.27;;
17714;SDS011;8977;50.902;4.314;2023-03-01T09:14:49;10.13;;;9.00;;
17714;SDS011;8977;50.902;4.314;2023-03-01T09:17:16;11.27;;;8.87;;
17714;SDS011;8977;50.902;4.314;2023-03-01T09:19:46;10.87;;;8.60;;
17714;SDS011;8977;50.902;4.314;2023-03-01T09:22:14;11.67;;;8.57;;
17714;SDS011;8977;50.902;4.314;2023-03-01T09:24:41;11.43;;;8.87;;
17714;SDS011;8977;50.902;4.314;2023-03-01T09:27:09;9.40;;;8.40;;
17714;SDS011;8977;50.902;4.314;2023-03-01T09:29:38;13.03;;;9.10;;
17714;SDS011;8977;50.902;4.314;2023-03-01T09:32:05;10.63;;;9.40;;
17714;SDS011;8977;50.902;4.314;2023-03-01T09:34:33;12.70;;;8.70;;
17714;SDS011;8977;50.902;4.314;2023-03-01T09:37:19;13.70;;;9.33;;
17714;SDS011;8977;50.902;4.314;2023-03-01T09:39:46;10.03;;;9.03;;
17714;SDS011;8977;50.902;4.314;2023-03-01T09:42:14;11.50;;;9.33;;
17714;SDS011;8977;50.902;4.314;2023-03-01T09:44:43;11.07;;;9.17;;
17714;SDS011;8977;50.902;4.314;2023-03-01T09:47:16;12.87;;;9.40;;
17714;SDS011;8977;50.902;4.314;2023-03-01T09:49:45;11.63;;;8.63;;
17714;SDS011;8977;50.902;4.314;2023-03-01T09:52:20;9.80;;;8.73;;
17714;SDS011;8977;50.902;4.314;2023-03-01T09:54:55;13.20;;;9.90;;
17714;SDS011;8977;50.902;4.314;2023-03-01T09:57:28;12.50;;;8.80;;
17714;SDS011;8977;50.902;4.314;2023-03-01T10:00:13;13.17;;;9.27;;
17714;SDS011;8977;50.902;4.314;2023-03-01T10:02:51;11.20;;;9.03;;
17714;SDS011;8977;50.902;4.314;2023-03-01T10:05:29;13.20;;;9.27;;
17714;SDS011;8977;50.902;4.314;2023-03-01T10:08:03;11.17;;;9.40;;
17714;SDS011;8977;50.902;4.314;2023-03-01T10:10:46;11.50;;;9.87;;
17714;SDS011;8977;50.902;4.314;2023-03-01T10:13:16;12.80;;;9.93;;
17714;SDS011;8977;50.902;4.314;2023-03-01T10:15:48;12.00;;;8.90;;
17714;SDS011;8977;50.902;4.314;2023-03-01T10:18:20;13.30;;;10.30;;
17714;SDS011;8977;50.902;4.314;2023-03-01T10:20:51;12.13;;;9.10;;
17714;SDS011;8977;50.902;4.314;2023-03-01T10:23:20;10.90;;;9.80;;
17714;SDS011;8977;50.902;4.314;2023-03-01T10:25:53;13.67;;;9.90;;
17714;SDS011;8977;50.902;4.314;2023-03-01T10:28:38;13.60;;;9.00;;
17714;SDS011;8977;50.902;4.314;2023-03-01T10:31:11;10.77;;;9.20;;
17714;SDS011;8977;50.902;4.314;2023-03-01T10:33:39;13.50;;;9.63;;
17714;SDS011;8977;50.902;4.314;2023-03-01T10:36:07;11.73;;;8.90;;
17714;SDS011;8977;50.902;4.314;2023-03-01T10:38:47;10.47;;;9.10;;
17714;SDS011;8977;50.902;4.314;2023-03-01T10:41:17;11.70;;;8.33;;
17714;SDS011;8977;50.902;4.314;2023-03-01T10:43:46;9.97;;;8.87;;
17714;SDS011;8977;50.902;4.314;2023-03-01T10:46:25;10.00;;;8.40;;
17714;SDS011;8977;50.902;4.314;2023-03-01T10:49:05;12.63;;;8.93;;
17714;SDS011;8977;50.902;4.314;2023-03-01T10:51:38;9.67;;;8.37;;
17714;SDS011;8977;50.902;4.314;2023-03-01T10:54:05;10.50;;;7.77;;
17714;SDS011;8977;50.902;4.314;2023-03-01T10:56:46;12.07;;;8.30;;
17714;SDS011;8977;50.902;4.314;2023-03-01T10:59:21;10.50;;;8.77;;
17714;SDS011;8977;50.902;4.314;2023-03-01T11:02:04;10.57;;;8.77;;
17714;SDS011;8977;50.902;4.314;2023-03-01T11:04:55;11.57;;;8.67;;
17714;SDS011;8977;50.902;4.314;2023-03-01T11:07:24;10.03;;;8.03;;
17714;SDS011;8977;50.902;4.314;2023-03-01T11:09:51;10.43;;;8.40;;
17714;SDS011;8977;50.902;4.314;2023-03-01T11:12:19;10.27;;;9.07;;
17714;SDS011;8977;50.902;4.314;2023-03-01T11:14:49;9.87;;;7.80;;
17714;SDS011;8977;50.902;4.314;2023-03-01T11:17:20;9.43;;;7.70;;
17714;SDS011;8977;50.902;4.314;2023-03-01T11:19:59;11.57;;;9.10;;
17714;SDS011;8977;50.902;4.314;2023-03-01T11:22:31;10.20;;;8.40;;
17714;SDS011;8977;50.902;4.314;2023-03-01T11:25:01;10.17;;;8.57;;
17714;SDS011;8977;50.902;4.314;2023-03-01T11:27:30;10.97;;;8.80;;
17714;SDS011;8977;50.902;4.314;2023-03-01T11:30:00;10.63;;;8.30;;
17714;SDS011;8977;50.902;4.314;2023-03-01T11:32:34;9.13;;;7.87;;
17714;SDS011;8977;50.902;4.314;2023-03-01T11:35:12;9.53;;;8.20;;
17714;SDS011;8977;50.902;4.314;2023-03-01T11:37:44;11.77;;;8.43;;
17714;SDS011;8977;50.902;4.314;2023-03-01T11:40:23;10.17;;;8.30;;
17714;SDS011;8977;50.902;4.314;2023-03-01T11:42:54;11.87;;;8.53;;
17714;SDS011;8977;50.902;4.314;2023-03-01T11:45:30;10.47;;;7.97;;
17714;SDS011;8977;50.902;4.314;2023-03-01T11:48:17;9.77;;;8.00;;
17714;SDS011;8977;50.902;4.314;2023-03-01T11:51:05;10.17;;;8.10;;
17714;SDS011;8977;50.902;4.314;2023-03-01T11:53:45;13.30;;;8.33;;
17714;SDS011;8977;50.902;4.314;2023-03-01T11:56:25;11.70;;;8.73;;
17714;SDS011;8977;50.902;4.314;2023-03-01T11:59:11;9.73;;;8.20;;
17714;SDS011;8977;50.902;4.314;2023-03-01T12:02:12;11.20;;;8.13;;
17714;SDS011;8977;50.902;4.314;2023-03-01T12:04:59;10.93;;;7.93;;
17714;SDS011;8977;50.902;4.314;2023-03-01T12:07:42;9.67;;;8.00;;
17714;SDS011;8977;50.902;4.314;2023-03-01T12:10:22;9.87;;;8.33;;
17714;SDS011;8977;50.902;4.314;2023-03-01T12:12:58;9.63;;;8.17;;
17714;SDS011;8977;50.902;4.314;2023-03-01T12:21:30;8.97;;;8.00;;
17714;SDS011;8977;50.902;4.314;2023-03-01T12:24:14;10.27;;;7.27;;
17714;SDS011;8977;50.902;4.314;2023-03-01T12:27:12;8.80;;;7.80;;
17714;SDS011;8977;50.902;4.314;2023-03-01T12:30:02;8.83;;;7.83;;
17714;SDS011;8977;50.902;4.314;2023-03-01T12:32:41;10.30;;;7.90;;
17714;SDS011;8977;50.902;4.314;2023-03-01T12:35:23;10.90;;;7.67;;
17714;SDS011;8977;50.902;4.314;2023-03-01T12:38:05;9.40;;;7.70;;
17714;SDS011;8977;50.902;4.314;2023-03-01T12:43:46;10.63;;;7.97;;
17714;SDS011;8977;50.902;4.314;2023-03-01T12:46:25;8.57;;;7.53;;
17714;SDS011;8977;50.902;4.314;2023-03-01T12:49:04;9.27;;;8.10;;
17714;SDS011;8977;50.902;4.314;2023-03-01T12:51:37;9.07;;;7.30;;
17714;SDS011;8977;50.902;4.314;2023-03-01T12:54:07;7.90;;;7.10;;
17714;SDS011;8977;50.902;4.314;2023-03-01T12:56:41;9.27;;;7.13;;
17714;SDS011;8977;50.902;4.314;2023-03-01T12:59:11;9.20;;;7.40;;
17714;SDS011;8977;50.902;4.314;2023-03-01T13:01:45;8.67;;;7.27;;
17714;SDS011;8977;50.902;4.314;2023-03-01T13:07:18;9.20;;;7.37;;
17714;SDS011;8977;50.902;4.314;2023-03-01T13:09:54;8.50;;;7.57;;
17714;SDS011;8977;50.902;4.314;2023-03-01T13:12:50;11.37;;;7.23;;
17714;SDS011;8977;50.902;4.314;2023-03-01T13:15:29;11.13;;;7.80;;
17714;SDS011;8977;50.902;4.314;2023-03-01T13:17:58;7.97;;;7.17;;
17714;SDS011;8977;50.902;4.314;2023-03-01T13:20:27;8.57;;;7.67;;
17714;SDS011;8977;50.902;4.314;2023-03-01T13:23:03;10.17;;;8.00;;
17714;SDS011;8977;50.902;4.314;2023-03-01T13:25:33;11.17;;;7.90;;
17714;SDS011;8977;50.902;4.314;2023-03-01T13:31:09;12.93;;;8.47;;
17714;SDS011;8977;50.902;4.314;2023-03-01T13:33:57;10.50;;;8.00;;
17714;SDS011;8977;50.902;4.314;2023-03-01T13:39:28;8.73;;;7.67;;
17714;SDS011;8977;50.902;4.314;2023-03-01T13:42:00;9.93;;;7.50;;
17714;SDS011;8977;50.902;4.314;2023-03-01T13:44:29;10.23;;;8.57;;
17714;SDS011;8977;50.902;4.314;2023-03-01T13:47:03;9.00;;;8.10;;
17714;SDS011;8977;50.902;4.314;2023-03-01T13:49:41;8.93;;;7.87;;
17714;SDS011;8977;50.902;4.314;2023-03-01T13:52:21;9.10;;;8.20;;
17714;SDS011;8977;50.902;4.314;2023-03-01T13:55:14;9.17;;;8.17;;
17714;SDS011;8977;50.902;4.314;2023-03-01T13:57:44;9.00;;;8.00;;
17714;SDS011;8977;50.902;4.314;2023-03-01T14:00:29;10.13;;;8.17;;
17714;SDS011;8977;50.902;4.314;2023-03-01T14:03:00;9.43;;;8.23;;
17714;SDS011;8977;50.902;4.314;2023-03-01T14:05:28;9.53;;;7.80;;
17714;SDS011;8977;50.902;4.314;2023-03-01T14:07:56;10.20;;;7.80;;
17714;SDS011;8977;50.902;4.314;2023-03-01T14:10:24;10.53;;;8.93;;
17714;SDS011;8977;50.902;4.314;2023-03-01T14:12:58;9.27;;;7.60;;
17714;SDS011;8977;50.902;4.314;2023-03-01T14:15:33;9.40;;;7.90;;
17714;SDS011;8977;50.902;4.314;2023-03-01T14:18:06;10.07;;;7.77;;
17714;SDS011;8977;50.902;4.314;2023-03-01T14:20:41;9.07;;;7.60;;
17714;SDS011;8977;50.902;4.314;2023-03-01T14:23:11;9.40;;;7.57;;
17714;SDS011;8977;50.902;4.314;2023-03-01T14:25:46;9.57;;;7.40;;
17714;SDS011;8977;50.902;4.314;2023-03-01T14:28:16;9.93;;;7.80;;
17714;SDS011;8977;50.902;4.314;2023-03-01T14:30:45;9.03;;;7.53;;
17714;SDS011;8977;50.902;4.314;2023-03-01T14:33:20;11.30;;;7.67;;
17714;SDS011;8977;50.902;4.314;2023-03-01T14:35:52;9.20;;;8.30;;
17714;SDS011;8977;50.902;4.314;2023-03-01T14:38:22;9.30;;;8.40;;
17714;SDS011;8977;50.902;4.314;2023-03-01T14:40:51;13.37;;;9.20;;
17714;SDS011;8977;50.902;4.314;2023-03-01T14:43:24;8.43;;;7.57;;
17714;SDS011;8977;50.902;4.314;2023-03-01T14:45:52;10.93;;;8.67;;
17714;SDS011;8977;50.902;4.314;2023-03-01T14:48:19;8.97;;;7.87;;
17714;SDS011;8977;50.902;4.314;2023-03-01T14:50:47;9.40;;;8.13;;
17714;SDS011;8977;50.902;4.314;2023-03-01T14:53:17;10.70;;;8.13;;
17714;SDS011;8977;50.902;4.314;2023-03-01T14:55:48;11.13;;;7.83;;
17714;SDS011;8977;50.902;4.314;2023-03-01T14:58:23;8.93;;;8.03;;
17714;SDS011;8977;50.902;4.314;2023-03-01T15:00:52;8.80;;;7.77;;
17714;SDS011;8977;50.902;4.314;2023-03-01T15:03:24;10.23;;;8.23;;
17714;SDS011;8977;50.902;4.314;2023-03-01T15:05:56;8.83;;;7.90;;
17714;SDS011;8977;50.902;4.314;2023-03-01T15:08:24;9.53;;;7.77;;
17714;SDS011;8977;50.902;4.314;2023-03-01T15:11:00;9.47;;;7.67;;
17714;SDS011;8977;50.902;4.314;2023-03-01T15:13:30;9.47;;;7.30;;
17714;SDS011;8977;50.902;4.314;2023-03-01T15:16:02;9.70;;;8.17;;
17714;SDS011;8977;50.902;4.314;2023-03-01T15:18:33;10.40;;;8.30;;
17714;SDS011;8977;50.902;4.314;2023-03-01T15:21:06;10.13;;;8.30;;
17714;SDS011;8977;50.902;4.314;2023-03-01T15:23:34;8.80;;;7.50;;
17714;SDS011;8977;50.902;4.314;2023-03-01T15:26:06;10.80;;;7.97;;
17714;SDS011;8977;50.902;4.314;2023-03-01T15:28:49;10.37;;;8.40;;
17714;SDS011;8977;50.902;4.314;2023-03-01T15:31:18;8.87;;;7.73;;
17714;SDS011;8977;50.902;4.314;2023-03-01T15:33:48;8.07;;;7.27;;
17714;SDS011;8977;50.902;4.314;2023-03-01T15:36:31;8.93;;;7.90;;